createdAt,value
2022-12-07T00:01:07.877Z,1.97
2022-12-07T00:03:34.631Z,1.98
2022-12-07T00:06:01.327Z,1.97
2022-12-07T00:08:27.899Z,1.95
2022-12-07T00:10:54.420Z,1.91
2022-12-07T00:13:20.980Z,1.86
2022-12-07T00:15:47.529Z,1.85
2022-12-07T00:18:14.010Z,1.83
2022-12-07T00:20:40.495Z,1.78
2022-12-07T00:23:07.043Z,1.76
2022-12-07T00:25:33.619Z,1.72
2022-12-07T00:28:00.107Z,1.69
2022-12-07T00:30:27.150Z,1.67
2022-12-07T00:32:53.675Z,1.73
2022-12-07T00:35:20.718Z,1.71
2022-12-07T00:37:47.237Z,1.71
2022-12-07T00:40:13.732Z,1.70
2022-12-07T00:42:40.213Z,1.74
2022-12-07T00:45:07.033Z,1.78
2022-12-07T00:47:33.726Z,1.81
2022-12-07T00:50:01.578Z,1.78
2022-12-07T00:52:28.330Z,1.81
2022-12-07T00:54:54.826Z,1.80
2022-12-07T00:57:21.342Z,1.75
2022-12-07T00:59:47.857Z,1.72
2022-12-07T01:02:14.403Z,1.69
2022-12-07T01:04:40.950Z,1.70
2022-12-07T01:07:07.577Z,1.70
2022-12-07T01:09:34.141Z,1.69
2022-12-07T01:12:00.599Z,1.70
2022-12-07T01:14:27.109Z,1.73
2022-12-07T01:16:53.622Z,1.71
2022-12-07T01:19:20.131Z,1.67
2022-12-07T01:21:46.697Z,1.68
2022-12-07T01:24:13.256Z,1.68
2022-12-07T01:26:39.831Z,1.68
2022-12-07T01:29:06.317Z,1.65
2022-12-07T01:31:32.821Z,1.66
2022-12-07T01:33:59.676Z,1.68
2022-12-07T01:36:30.320Z,1.71
2022-12-07T01:39:01.219Z,1.73
2022-12-07T01:41:28.787Z,1.73
2022-12-07T01:44:14.209Z,1.73
2022-12-07T01:46:40.920Z,1.79
2022-12-07T01:49:08.071Z,1.76
2022-12-07T01:51:34.614Z,1.78
2022-12-07T01:54:01.150Z,1.75
2022-12-07T01:56:27.710Z,1.77
2022-12-07T01:58:54.282Z,1.79
2022-12-07T02:01:20.879Z,1.78
2022-12-07T02:03:47.406Z,1.87
2022-12-07T02:06:14.712Z,1.86
2022-12-07T02:08:41.193Z,1.83
2022-12-07T02:11:07.693Z,1.89
2022-12-07T02:13:34.691Z,1.87
2022-12-07T02:16:22.911Z,1.90
2022-12-07T02:18:52.467Z,1.89
2022-12-07T02:21:34.349Z,1.92
2022-12-07T02:24:04.154Z,1.91
2022-12-07T02:26:42.841Z,1.91
2022-12-07T02:29:15.463Z,1.93
2022-12-07T02:31:44.856Z,1.95
2022-12-07T02:34:13.921Z,1.97
2022-12-07T02:36:41.103Z,1.94
2022-12-07T02:39:08.520Z,1.93
2022-12-07T02:41:36.928Z,1.92
2022-12-07T02:44:05.037Z,1.91
2022-12-07T02:46:33.967Z,1.90
2022-12-07T02:49:01.132Z,1.89
2022-12-07T02:51:28.916Z,1.90
2022-12-07T02:53:55.388Z,1.90
2022-12-07T02:56:45.265Z,1.90
2022-12-07T02:59:30.069Z,1.93
2022-12-07T03:02:04.827Z,1.96
2022-12-07T03:04:50.284Z,1.94
2022-12-07T03:07:23.425Z,1.97
2022-12-07T03:09:55.315Z,2.04
2022-12-07T03:12:23.414Z,2.02
2022-12-07T03:15:02.552Z,2.02
2022-12-07T03:17:29.855Z,2.00
2022-12-07T03:19:57.876Z,2.03
2022-12-07T03:22:24.410Z,2.08
2022-12-07T03:24:53.458Z,2.07
2022-12-07T03:27:21.145Z,2.05
2022-12-07T03:29:49.426Z,2.05
2022-12-07T03:32:18.063Z,2.05
2022-12-07T03:35:04.798Z,2.01
2022-12-07T03:37:35.608Z,1.99
2022-12-07T03:40:08.478Z,1.94
2022-12-07T03:42:35.014Z,1.91
2022-12-07T03:45:02.482Z,1.90
2022-12-07T03:47:35.058Z,1.89
2022-12-07T03:50:13.227Z,1.93
2022-12-07T03:52:43.944Z,1.93
2022-12-07T03:55:29.186Z,1.95
2022-12-07T03:57:57.529Z,2.01
2022-12-07T04:00:24.095Z,2.02
2022-12-07T04:02:52.838Z,2.01
2022-12-07T04:05:19.531Z,2.00
2022-12-07T04:07:46.204Z,2.02
2022-12-07T04:10:12.809Z,2.03
2022-12-07T04:12:39.424Z,2.04
2022-12-07T04:15:06.273Z,2.07
2022-12-07T04:17:32.856Z,2.12
2022-12-07T04:19:59.954Z,2.08
2022-12-07T04:22:26.782Z,2.08
2022-12-07T04:24:53.564Z,2.07
2022-12-07T04:27:20.210Z,2.06
2022-12-07T04:29:46.736Z,2.09
2022-12-07T04:32:13.237Z,2.11
2022-12-07T04:34:39.843Z,2.11
2022-12-07T04:37:06.386Z,2.09
2022-12-07T04:39:33.096Z,2.08
2022-12-07T04:41:59.908Z,2.08
2022-12-07T04:44:26.540Z,2.09
2022-12-07T04:46:53.357Z,2.12
2022-12-07T04:49:19.995Z,2.11
2022-12-07T04:51:46.661Z,2.11
2022-12-07T04:54:13.482Z,2.10
2022-12-07T04:56:40.191Z,2.09
2022-12-07T04:59:06.782Z,2.10
2022-12-07T05:01:33.382Z,2.11
2022-12-07T05:04:00.585Z,2.11
2022-12-07T05:06:27.166Z,2.11
2022-12-07T05:08:53.727Z,2.09
2022-12-07T05:11:39.011Z,2.11
2022-12-07T05:14:25.816Z,2.12
2022-12-07T05:16:52.705Z,2.13
2022-12-07T05:19:19.765Z,2.11
2022-12-07T05:25:28.069Z,2.10
2022-12-07T05:27:55.920Z,2.05
2022-12-07T05:30:22.440Z,2.06
2022-12-07T05:32:49.013Z,2.07
2022-12-07T05:35:15.607Z,2.06
2022-12-07T05:37:42.137Z,1.99
2022-12-07T05:40:09.083Z,1.90
2022-12-07T05:42:35.765Z,1.85
2022-12-07T05:45:02.292Z,1.83
2022-12-07T05:47:28.749Z,1.80
2022-12-07T05:49:55.336Z,1.80
2022-12-07T05:52:21.891Z,1.81
2022-12-07T05:54:48.389Z,0.21
2022-12-07T05:57:14.981Z,1.88
2022-12-07T05:59:41.516Z,1.88
2022-12-07T06:02:09.305Z,1.85
2022-12-07T06:04:36.866Z,1.86
2022-12-07T06:07:03.728Z,1.86
2022-12-07T06:09:30.254Z,1.87
2022-12-07T06:12:15.551Z,1.88
2022-12-07T06:14:42.138Z,1.93
2022-12-07T06:17:08.685Z,1.93
2022-12-07T06:19:35.446Z,1.95
2022-12-07T06:22:02.123Z,1.96
2022-12-07T06:24:28.665Z,2.00
2022-12-07T06:26:55.180Z,2.02
2022-12-07T06:29:21.751Z,2.01
2022-12-07T06:31:48.348Z,2.00
2022-12-07T06:34:16.233Z,1.99
2022-12-07T06:36:42.820Z,1.99
2022-12-07T06:39:10.162Z,1.99
2022-12-07T06:41:39.975Z,2.03
2022-12-07T06:44:06.545Z,2.02
2022-12-07T06:46:33.170Z,2.04
2022-12-07T06:48:59.766Z,2.08
2022-12-07T06:51:26.946Z,2.10
2022-12-07T06:53:53.446Z,2.10
2022-12-07T06:56:20.299Z,2.12
2022-12-07T06:58:46.835Z,2.11
2022-12-07T07:01:14.439Z,2.11
2022-12-07T07:03:40.985Z,2.11
2022-12-07T07:06:08.457Z,2.10
2022-12-07T07:08:35.531Z,2.14
2022-12-07T07:11:02.553Z,2.16
2022-12-07T07:13:29.355Z,2.14
2022-12-07T07:15:55.901Z,2.11
2022-12-07T07:18:22.391Z,2.08
2022-12-07T07:20:48.877Z,2.06
2022-12-07T07:23:15.425Z,2.07
2022-12-07T07:25:41.901Z,2.09
2022-12-07T07:28:08.459Z,2.10
2022-12-07T07:30:35.246Z,2.10
2022-12-07T07:33:02.036Z,2.14
2022-12-07T07:35:29.014Z,2.14
2022-12-07T07:37:55.472Z,2.16
2022-12-07T07:40:22.010Z,2.20
2022-12-07T07:42:49.652Z,2.20
2022-12-07T07:45:16.118Z,2.21
2022-12-07T07:47:42.632Z,2.24
2022-12-07T07:50:09.416Z,2.26
2022-12-07T07:52:35.843Z,2.28
2022-12-07T07:55:02.244Z,2.28
2022-12-07T07:57:28.705Z,2.38
2022-12-07T07:59:55.230Z,2.36
2022-12-07T08:02:21.758Z,2.35
2022-12-07T08:04:48.600Z,2.35
2022-12-07T08:07:15.156Z,2.39
2022-12-07T08:09:41.699Z,2.40
2022-12-07T08:12:08.202Z,2.41
2022-12-07T08:14:35.217Z,2.45
2022-12-07T08:17:02.287Z,2.43
2022-12-07T08:19:28.758Z,2.39
2022-12-07T08:21:57.067Z,2.41
2022-12-07T08:24:23.717Z,2.40
2022-12-07T08:26:51.493Z,2.39
2022-12-07T08:29:18.147Z,2.40
2022-12-07T08:31:44.711Z,2.40
2022-12-07T08:34:11.588Z,2.36
2022-12-07T08:36:38.060Z,2.33
2022-12-07T08:41:51.121Z,2.26
2022-12-07T08:44:17.723Z,2.30
2022-12-07T08:46:51.934Z,2.32
2022-12-07T08:49:23.462Z,2.32
2022-12-07T08:51:49.997Z,2.32
2022-12-07T08:54:17.337Z,2.37
2022-12-07T08:56:44.082Z,2.37
2022-12-07T08:59:10.560Z,2.37
2022-12-07T09:01:37.083Z,2.37
2022-12-07T09:04:03.646Z,2.39
2022-12-07T09:06:30.325Z,2.40
2022-12-07T09:08:57.845Z,2.41
2022-12-07T09:11:28.592Z,2.45
2022-12-07T09:13:55.451Z,2.50
2022-12-07T09:16:22.007Z,2.55
2022-12-07T09:18:48.502Z,2.68
2022-12-07T09:21:14.944Z,2.73
2022-12-07T09:23:44.397Z,2.79
2022-12-07T09:26:11.286Z,2.79
2022-12-07T09:28:37.858Z,2.79
2022-12-07T09:33:55.227Z,2.78
2022-12-07T09:36:21.729Z,2.77
2022-12-07T09:38:48.179Z,2.81
2022-12-07T09:41:15.172Z,2.79
2022-12-07T09:43:41.652Z,2.79
2022-12-07T09:46:09.662Z,2.88
2022-12-07T09:48:40.256Z,2.91
2022-12-07T09:51:22.752Z,2.95
2022-12-07T09:53:50.430Z,2.90
2022-12-07T09:56:17.315Z,2.90
2022-12-07T09:58:43.913Z,2.92
2022-12-07T10:01:10.872Z,2.92
2022-12-07T10:03:38.277Z,2.95
2022-12-07T10:06:04.818Z,2.91
2022-12-07T10:08:31.485Z,2.92
2022-12-07T10:10:58.044Z,2.85
2022-12-07T10:13:44.724Z,2.87
2022-12-07T10:16:37.789Z,2.89
2022-12-07T10:19:19.659Z,2.87
2022-12-07T10:22:04.922Z,2.92
2022-12-07T10:24:31.492Z,2.94
2022-12-07T10:26:58.130Z,2.94
2022-12-07T10:29:25.772Z,2.94
2022-12-07T10:32:02.257Z,2.92
2022-12-07T10:34:41.196Z,2.88
2022-12-07T10:37:12.254Z,2.86
2022-12-07T10:39:45.812Z,2.85
2022-12-07T10:42:17.249Z,2.86
2022-12-07T10:44:44.341Z,2.89
2022-12-07T10:47:30.193Z,2.94
2022-12-07T10:50:15.203Z,2.99
2022-12-07T10:52:54.546Z,3.05
2022-12-07T10:55:28.862Z,3.12
2022-12-07T10:58:01.451Z,3.16
2022-12-07T11:00:30.773Z,3.21
2022-12-07T11:03:04.619Z,3.20
2022-12-07T11:05:37.169Z,3.21
2022-12-07T11:08:06.353Z,3.21
2022-12-07T11:10:48.049Z,3.17
2022-12-07T11:13:28.612Z,3.09
2022-12-07T11:15:55.609Z,3.07
2022-12-07T11:18:40.499Z,3.09
2022-12-07T11:21:33.381Z,3.15
2022-12-07T11:24:05.988Z,3.17
2022-12-07T11:26:39.841Z,3.13
2022-12-07T11:29:25.410Z,3.13
2022-12-07T11:31:51.898Z,3.17
2022-12-07T11:34:37.551Z,3.24
2022-12-07T11:37:06.016Z,3.22
2022-12-07T11:39:53.600Z,3.24
2022-12-07T11:42:22.434Z,3.25
2022-12-07T11:44:48.923Z,3.26
2022-12-07T11:47:18.146Z,3.23
2022-12-07T11:49:46.189Z,3.20
2022-12-07T11:52:24.211Z,3.21
2022-12-07T11:54:51.193Z,3.27
2022-12-07T11:57:26.715Z,3.34
2022-12-07T11:59:58.592Z,3.38
2022-12-07T12:02:29.737Z,3.42
2022-12-07T12:05:05.365Z,3.48
2022-12-07T12:10:31.270Z,3.58
2022-12-07T12:15:53.334Z,3.71
2022-12-07T12:18:23.743Z,3.69
2022-12-07T12:20:57.362Z,3.73
2022-12-07T12:23:25.311Z,3.78
2022-12-07T12:25:52.795Z,3.81
2022-12-07T12:28:25.359Z,3.81
2022-12-07T12:31:10.724Z,3.76
2022-12-07T12:33:37.178Z,3.72
2022-12-07T12:36:27.209Z,3.69
2022-12-07T12:38:59.909Z,3.59
2022-12-07T12:41:39.449Z,3.50
2022-12-07T12:44:15.221Z,3.42
2022-12-07T12:46:51.159Z,3.35
2022-12-07T12:49:17.658Z,3.33
2022-12-07T12:51:44.775Z,3.29
2022-12-07T12:54:21.509Z,3.29
2022-12-07T12:56:54.090Z,3.27
2022-12-07T12:59:26.667Z,3.23
2022-12-07T13:02:19.407Z,3.19
2022-12-07T13:04:48.962Z,3.15
2022-12-07T13:07:35.950Z,3.15
2022-12-07T13:10:02.741Z,3.07
2022-12-07T13:12:29.211Z,3.13
2022-12-07T13:14:56.732Z,3.10
2022-12-07T13:17:32.397Z,3.12
2022-12-07T13:20:02.892Z,3.10
2022-12-07T13:22:29.425Z,3.08
2022-12-07T13:24:56.973Z,3.06
2022-12-07T13:27:23.735Z,3.02
2022-12-07T13:29:50.201Z,3.05
2022-12-07T13:32:34.847Z,3.01
2022-12-07T13:35:01.603Z,3.01
2022-12-07T13:37:32.450Z,3.04
2022-12-07T13:40:17.551Z,3.06
2022-12-07T13:42:44.859Z,3.02
2022-12-07T13:45:23.552Z,3.04
2022-12-07T13:47:54.120Z,3.00
2022-12-07T13:50:30.312Z,2.96
2022-12-07T13:52:57.161Z,2.93
2022-12-07T13:55:23.888Z,2.89
2022-12-07T13:57:51.067Z,2.88
2022-12-07T14:00:27.302Z,2.88
2022-12-07T14:02:57.015Z,2.89
2022-12-07T14:05:27.635Z,2.89
2022-12-07T14:07:58.235Z,2.80
2022-12-07T14:10:26.109Z,2.76
2022-12-07T14:12:52.582Z,2.72
2022-12-07T14:15:22.775Z,2.67
2022-12-07T14:17:53.033Z,2.70
2022-12-07T14:20:34.780Z,2.70
2022-12-07T14:23:09.935Z,2.70
2022-12-07T14:25:51.589Z,2.66
2022-12-07T14:28:28.362Z,2.65
2022-12-07T14:30:54.886Z,2.68
2022-12-07T14:33:21.352Z,2.69
2022-12-07T14:35:47.800Z,2.63
2022-12-07T14:38:14.277Z,2.56
2022-12-07T14:40:40.897Z,2.52
2022-12-07T14:43:10.015Z,2.51
2022-12-07T14:45:36.460Z,2.53
2022-12-07T14:53:57.282Z,2.48
2022-12-07T14:56:24.281Z,2.49
2022-12-07T14:58:50.754Z,2.50
2022-12-07T15:01:17.193Z,2.44
2022-12-07T15:03:43.911Z,2.43
2022-12-07T15:06:11.312Z,2.40
2022-12-07T15:08:37.801Z,2.39
2022-12-07T15:11:04.319Z,2.37
2022-12-07T15:13:49.326Z,2.40
2022-12-07T15:16:17.623Z,2.40
2022-12-07T15:18:58.425Z,2.44
2022-12-07T15:21:30.709Z,2.43
2022-12-07T15:23:57.156Z,2.46
2022-12-07T15:26:23.614Z,2.43
2022-12-07T15:28:50.085Z,2.43
2022-12-07T15:31:47.033Z,2.40
2022-12-07T15:34:03.668Z,2.35
2022-12-07T15:36:30.704Z,2.35
2022-12-07T15:39:13.610Z,2.39
2022-12-07T15:41:40.876Z,2.37
2022-12-07T15:44:30.726Z,2.35
2022-12-07T15:46:57.671Z,2.33
2022-12-07T15:49:24.190Z,2.33
2022-12-07T15:51:50.614Z,2.32
2022-12-07T15:54:19.029Z,2.28
2022-12-07T15:56:45.471Z,2.31
2022-12-07T15:59:11.920Z,2.30
2022-12-07T16:01:38.409Z,2.30
2022-12-07T16:04:04.975Z,2.28
2022-12-07T16:06:31.434Z,2.27
2022-12-07T16:08:57.943Z,2.27
2022-12-07T16:11:24.387Z,2.23
2022-12-07T16:13:50.872Z,2.21
2022-12-07T16:16:17.783Z,2.22
2022-12-07T16:18:44.638Z,2.24
2022-12-07T16:21:11.042Z,2.28
2022-12-07T16:23:37.560Z,2.37
2022-12-07T16:26:07.716Z,2.33
2022-12-07T16:28:34.242Z,2.31
2022-12-07T16:31:01.541Z,2.26
2022-12-07T16:33:28.065Z,2.26
2022-12-07T16:35:54.532Z,2.14
2022-12-07T16:38:21.040Z,2.04
2022-12-07T16:40:48.060Z,1.99
2022-12-07T16:43:14.543Z,1.91
2022-12-07T16:45:41.035Z,1.84
2022-12-07T16:48:07.519Z,1.82
2022-12-07T16:50:34.432Z,1.82
2022-12-07T16:53:00.909Z,1.89
2022-12-07T16:55:27.350Z,1.85
2022-12-07T16:57:53.828Z,1.85
2022-12-07T17:00:20.585Z,1.82
2022-12-07T17:02:47.031Z,1.85
2022-12-07T17:05:13.514Z,1.75
2022-12-07T17:07:40.026Z,1.73
2022-12-07T17:10:06.878Z,1.70
2022-12-07T17:12:33.540Z,1.65
2022-12-07T17:15:18.349Z,1.59
2022-12-07T17:17:51.942Z,1.60
2022-12-07T17:20:18.481Z,1.62
2022-12-07T17:22:45.259Z,1.63
2022-12-07T17:25:12.137Z,1.58
2022-12-07T17:27:38.594Z,1.54
2022-12-07T17:30:05.576Z,1.52
2022-12-07T17:32:32.024Z,1.53
2022-12-07T17:35:02.315Z,1.49
2022-12-07T17:37:28.992Z,1.47
2022-12-07T17:39:58.228Z,1.46
2022-12-07T17:42:37.397Z,1.44
2022-12-07T17:45:04.913Z,1.41
2022-12-07T17:47:31.748Z,1.33
2022-12-07T17:50:03.244Z,1.29
2022-12-07T17:52:51.649Z,1.25
2022-12-07T17:55:18.160Z,1.20
2022-12-07T17:57:44.605Z,1.18
2022-12-07T18:00:12.226Z,1.17
2022-12-07T18:02:38.957Z,1.16
2022-12-07T18:05:05.944Z,1.19
2022-12-07T18:07:32.580Z,1.21
2022-12-07T18:09:59.209Z,1.17
2022-12-07T18:12:28.275Z,1.17
2022-12-07T18:14:55.098Z,1.15
2022-12-07T18:17:21.706Z,1.14
2022-12-07T18:19:48.198Z,1.16
2022-12-07T18:22:14.737Z,1.15
2022-12-07T18:24:41.214Z,1.19
2022-12-07T18:27:07.713Z,1.18
2022-12-07T18:33:07.008Z,1.17
2022-12-07T18:35:35.046Z,1.16
2022-12-07T18:38:01.533Z,1.14
2022-12-07T18:40:27.966Z,1.13
2022-12-07T18:42:54.405Z,1.14
2022-12-07T18:45:20.927Z,1.15
2022-12-07T18:47:47.372Z,1.13
2022-12-07T18:50:13.989Z,1.06
2022-12-07T18:52:40.444Z,1.02
2022-12-07T18:55:07.209Z,1.01
2022-12-07T18:57:34.136Z,1.01
2022-12-07T19:00:00.718Z,1.00
2022-12-07T19:02:27.266Z,1.05
2022-12-07T19:04:53.863Z,1.09
2022-12-07T19:07:20.324Z,1.13
2022-12-07T19:09:46.776Z,1.16
2022-12-07T19:12:13.518Z,1.15
2022-12-07T19:14:40.024Z,1.10
2022-12-07T19:17:07.698Z,1.12
2022-12-07T19:19:41.268Z,1.10
2022-12-07T19:22:07.918Z,1.10
2022-12-07T19:24:34.508Z,1.11
2022-12-07T19:27:01.014Z,1.10
2022-12-07T19:29:30.870Z,1.11
2022-12-07T19:31:58.087Z,1.14
2022-12-07T19:34:24.686Z,1.16
2022-12-07T19:36:51.129Z,1.19
2022-12-07T19:39:17.778Z,1.16
2022-12-07T19:41:44.711Z,1.16
2022-12-07T19:44:12.200Z,1.13
2022-12-07T19:46:38.804Z,1.10
2022-12-07T19:49:05.210Z,1.09
2022-12-07T19:51:31.717Z,1.10
2022-12-07T19:53:58.719Z,1.08
2022-12-07T19:56:25.274Z,1.08
2022-12-07T19:58:51.750Z,1.09
2022-12-07T20:01:18.302Z,1.15
2022-12-07T20:03:44.888Z,1.21
2022-12-07T20:06:12.758Z,1.25
2022-12-07T20:08:39.180Z,1.28
2022-12-07T20:11:25.607Z,1.30
2022-12-07T20:13:52.304Z,1.28
2022-12-07T20:16:20.077Z,1.29
2022-12-07T20:18:48.602Z,1.30
2022-12-07T20:21:18.179Z,1.28
2022-12-07T20:23:44.656Z,1.27
2022-12-07T20:26:11.408Z,1.31
2022-12-07T20:28:37.843Z,1.33
2022-12-07T20:31:04.502Z,1.35
2022-12-07T20:33:31.091Z,1.37
2022-12-07T20:36:03.876Z,1.37
2022-12-07T20:38:32.239Z,1.38
2022-12-07T20:40:59.708Z,1.37
2022-12-07T20:43:26.115Z,1.40
2022-12-07T20:45:52.561Z,1.42
2022-12-07T20:48:19.148Z,1.40
2022-12-07T20:50:45.572Z,1.42
2022-12-07T20:53:12.230Z,1.46
2022-12-07T20:55:39.593Z,1.45
2022-12-07T20:58:06.420Z,1.46
2022-12-07T21:00:33.055Z,1.50
2022-12-07T21:02:59.625Z,1.47
2022-12-07T21:05:26.150Z,1.51
2022-12-07T21:07:52.910Z,1.50
2022-12-07T21:10:19.451Z,1.47
2022-12-07T21:12:47.407Z,1.45
2022-12-07T21:15:16.677Z,1.43
2022-12-07T21:17:43.157Z,1.42
2022-12-07T21:20:09.829Z,1.50
2022-12-07T21:22:36.704Z,1.53
2022-12-07T21:25:03.403Z,1.56
2022-12-07T21:27:30.115Z,1.60
2022-12-07T21:29:56.524Z,1.59
2022-12-07T21:32:23.043Z,1.60
2022-12-07T21:34:49.577Z,1.61
2022-12-07T21:37:16.585Z,1.66
2022-12-07T21:39:43.297Z,1.66
2022-12-07T21:42:09.698Z,1.68
2022-12-07T21:44:36.163Z,1.69
2022-12-07T21:47:02.695Z,1.68
2022-12-07T21:49:29.140Z,1.63
2022-12-07T21:51:55.677Z,1.64
2022-12-07T21:54:25.746Z,1.64
2022-12-07T21:56:52.719Z,1.65
2022-12-07T21:59:21.111Z,1.63
2022-12-07T22:01:48.747Z,1.67
2022-12-07T22:04:19.351Z,1.70
2022-12-07T22:06:45.941Z,1.71
2022-12-07T22:09:12.369Z,1.73
2022-12-07T22:11:38.780Z,1.73
2022-12-07T22:14:24.003Z,1.74
2022-12-07T22:16:51.052Z,1.71
2022-12-07T22:19:17.561Z,1.75
2022-12-07T22:21:44.034Z,1.74
2022-12-07T22:24:10.524Z,1.72
2022-12-07T22:26:37.017Z,1.73
2022-12-07T22:29:03.619Z,1.71
2022-12-07T22:31:30.362Z,1.71
2022-12-07T22:33:56.855Z,1.69
2022-12-07T22:36:23.284Z,1.73
2022-12-07T22:38:49.772Z,1.75
2022-12-07T22:41:26.295Z,1.78
2022-12-07T22:43:53.013Z,1.77
2022-12-07T22:47:30.117Z,1.79
2022-12-07T22:49:56.860Z,1.79
2022-12-07T22:52:23.337Z,1.78
2022-12-07T22:54:49.911Z,1.74
2022-12-07T22:57:16.378Z,1.73
2022-12-07T22:59:42.803Z,1.68
2022-12-07T23:02:09.322Z,1.73
2022-12-07T23:04:35.783Z,1.73
2022-12-07T23:07:02.467Z,1.71
2022-12-07T23:09:28.922Z,1.69
2022-12-07T23:12:14.109Z,1.71
2022-12-07T23:14:40.601Z,1.71
2022-12-07T23:17:07.040Z,1.72
2022-12-07T23:19:33.466Z,0.96
2022-12-07T23:22:00.807Z,1.71
2022-12-07T23:24:27.319Z,1.67
2022-12-07T23:26:53.898Z,1.69
2022-12-07T23:29:20.358Z,1.68
2022-12-07T23:31:47.481Z,1.67
2022-12-07T23:34:14.116Z,1.70
2022-12-07T23:36:40.570Z,1.74
2022-12-07T23:39:07.254Z,1.76
2022-12-07T23:41:33.683Z,1.78
2022-12-07T23:44:00.325Z,1.74
2022-12-07T23:46:30.657Z,1.72
2022-12-07T23:48:57.306Z,1.70
2022-12-07T23:51:23.871Z,1.69
2022-12-07T23:53:50.514Z,1.65
2022-12-07T23:56:17.963Z,1.65
2022-12-07T23:58:44.368Z,1.64
